createdAt,value
2018-03-03T00:02:03.962Z,39.53
2018-03-03T00:04:32.240Z,38.50
2018-03-03T00:07:00.817Z,34.23
2018-03-03T00:09:30.345Z,40.47
2018-03-03T00:11:58.639Z,42.37
2018-03-03T00:14:26.959Z,43.60
2018-03-03T00:16:56.720Z,45.13
2018-03-03T00:19:25.015Z,43.77
2018-03-03T00:21:53.348Z,37.07
2018-03-03T00:24:21.644Z,36.03
2018-03-03T00:26:49.949Z,34.60
2018-03-03T00:29:18.256Z,47.23
2018-03-03T00:31:46.532Z,47.07
2018-03-03T00:34:15.663Z,40.13
2018-03-03T00:36:43.943Z,35.73
2018-03-03T00:39:13.256Z,36.87
2018-03-03T00:41:41.555Z,35.63
2018-03-03T00:44:09.831Z,33.27
2018-03-03T00:46:38.780Z,34.53
2018-03-03T00:49:07.096Z,37.70
2018-03-03T00:51:36.300Z,35.30
2018-03-03T00:54:05.211Z,40.77
2018-03-03T00:56:33.493Z,42.80
2018-03-03T00:59:01.818Z,34.93
2018-03-03T01:01:30.236Z,37.97
2018-03-03T01:03:59.425Z,34.53
2018-03-03T01:06:27.724Z,45.77
2018-03-03T01:08:56.045Z,51.53
2018-03-03T01:11:24.337Z,39.80
2018-03-03T01:13:52.664Z,43.80
2018-03-03T01:16:20.948Z,40.30
2018-03-03T01:18:49.247Z,46.63
2018-03-03T01:21:17.757Z,44.40
2018-03-03T01:23:46.050Z,46.27
2018-03-03T01:26:14.324Z,38.93
2018-03-03T01:28:42.711Z,34.90
2018-03-03T01:31:11.080Z,44.20
2018-03-03T01:33:39.459Z,40.80
2018-03-03T01:36:07.865Z,47.27
2018-03-03T01:38:36.444Z,44.57
2018-03-03T01:41:04.901Z,39.50
2018-03-03T01:43:34.045Z,49.07
2018-03-03T01:46:02.320Z,35.80
2018-03-03T01:48:31.076Z,73.90
2018-03-03T01:50:59.361Z,47.93
2018-03-03T01:53:28.405Z,46.77
2018-03-03T01:55:57.449Z,38.20
2018-03-03T01:58:26.188Z,39.60
2018-03-03T02:00:55.248Z,46.80
2018-03-03T02:03:24.010Z,34.90
2018-03-03T02:05:52.339Z,42.60
2018-03-03T02:08:21.454Z,45.23
2018-03-03T02:10:50.528Z,39.13
2018-03-03T02:13:19.411Z,41.57
2018-03-03T02:15:47.688Z,38.10
2018-03-03T02:18:16.408Z,57.80
2018-03-03T02:20:45.549Z,47.83
2018-03-03T02:23:13.848Z,45.57
2018-03-03T02:25:42.504Z,46.73
2018-03-03T02:28:10.783Z,46.80
2018-03-03T02:30:39.500Z,38.40
2018-03-03T02:33:07.850Z,42.40
2018-03-03T02:35:36.755Z,41.13
2018-03-03T02:38:05.553Z,46.37
2018-03-03T02:40:34.513Z,38.13
2018-03-03T02:43:03.357Z,49.30
2018-03-03T02:45:31.650Z,38.93
2018-03-03T02:48:00.887Z,40.57
2018-03-03T02:50:29.187Z,43.30
2018-03-03T02:52:57.516Z,35.77
2018-03-03T02:55:26.620Z,39.33
2018-03-03T02:57:54.916Z,49.23
2018-03-03T03:00:23.236Z,36.57
2018-03-03T03:02:51.613Z,37.40
2018-03-03T03:05:20.249Z,43.90
2018-03-03T03:07:49.265Z,45.30
2018-03-03T03:10:17.843Z,44.10
2018-03-03T03:12:46.752Z,55.97
2018-03-03T03:15:15.038Z,49.13
2018-03-03T03:17:43.691Z,42.60
2018-03-03T03:20:11.980Z,44.27
2018-03-03T03:22:40.374Z,41.83
2018-03-03T03:25:09.575Z,49.10
2018-03-03T03:27:37.866Z,43.47
2018-03-03T03:30:06.264Z,41.53
2018-03-03T03:32:34.568Z,41.37
2018-03-03T03:35:03.832Z,29.80
2018-03-03T03:37:33.292Z,36.30
2018-03-03T03:40:01.574Z,40.47
2018-03-03T03:42:29.855Z,52.70
2018-03-03T03:44:58.259Z,39.47
2018-03-03T03:47:26.544Z,40.13
2018-03-03T03:49:54.844Z,49.50
2018-03-03T03:52:23.276Z,36.20
2018-03-03T03:54:52.755Z,34.90
2018-03-03T03:57:21.828Z,61.43
2018-03-03T03:59:50.246Z,46.03
2018-03-03T04:02:18.544Z,44.37
2018-03-03T04:04:46.846Z,44.90
2018-03-03T04:07:15.500Z,40.50
2018-03-03T04:09:44.123Z,59.63
2018-03-03T04:12:13.145Z,37.60
2018-03-03T04:14:42.232Z,51.53
2018-03-03T04:17:11.277Z,41.13
2018-03-03T04:19:39.584Z,42.80
2018-03-03T04:22:08.676Z,38.20
2018-03-03T04:24:36.950Z,42.30
2018-03-03T04:27:05.252Z,46.77
2018-03-03T04:29:34.308Z,41.10
2018-03-03T04:32:02.582Z,45.27
2018-03-03T04:34:30.956Z,56.27
2018-03-03T04:36:59.312Z,46.23
2018-03-03T04:39:27.603Z,48.67
2018-03-03T04:41:56.469Z,45.50
2018-03-03T04:44:25.553Z,52.30
2018-03-03T04:46:53.827Z,50.97
2018-03-03T04:49:22.716Z,36.77
2018-03-03T04:51:51.026Z,50.17
2018-03-03T04:54:19.323Z,45.60
2018-03-03T04:56:47.707Z,40.73
2018-03-03T04:59:21.383Z,49.43
2018-03-03T05:01:51.370Z,40.03
2018-03-03T05:04:25.228Z,47.23
2018-03-03T05:06:59.136Z,39.47
2018-03-03T05:09:27.732Z,50.03
2018-03-03T05:11:56.135Z,50.63
2018-03-03T05:14:30.421Z,40.17
2018-03-03T05:17:00.194Z,52.23
2018-03-03T05:22:39.142Z,40.87
2018-03-03T05:25:14.744Z,40.37
2018-03-03T05:31:13.176Z,48.90
2018-03-03T05:33:46.964Z,53.77
2018-03-03T05:36:20.771Z,44.33
2018-03-03T05:42:07.208Z,46.50
2018-03-03T05:47:55.428Z,45.37
2018-03-03T05:50:29.899Z,50.63
2018-03-03T05:52:58.197Z,58.73
2018-03-03T05:59:00.346Z,46.00
2018-03-03T06:01:40.407Z,48.07
2018-03-03T06:04:14.229Z,51.03
2018-03-03T06:06:47.971Z,40.17
2018-03-03T06:09:18.827Z,51.70
2018-03-03T06:11:46.778Z,44.70
2018-03-03T06:14:15.861Z,43.60
2018-03-03T06:16:44.916Z,48.00
2018-03-03T06:19:13.399Z,42.17
2018-03-03T06:21:42.519Z,40.93
2018-03-03T06:24:11.393Z,48.23
2018-03-03T06:26:40.293Z,42.63
2018-03-03T06:29:08.627Z,48.50
2018-03-03T06:31:36.924Z,50.90
2018-03-03T06:34:06.745Z,47.57
2018-03-03T06:36:35.224Z,58.07
2018-03-03T06:39:03.527Z,52.30
2018-03-03T06:41:31.825Z,57.77
2018-03-03T06:44:01.056Z,47.90
2018-03-03T06:46:30.109Z,50.67
2018-03-03T06:48:58.419Z,46.77
2018-03-03T06:51:27.830Z,39.40
2018-03-03T06:53:56.868Z,46.27
2018-03-03T06:56:25.419Z,56.03
2018-03-03T06:58:54.501Z,59.67
2018-03-03T07:01:23.584Z,42.70
2018-03-03T07:03:51.929Z,37.53
2018-03-03T07:06:20.487Z,49.07
2018-03-03T07:08:49.732Z,54.83
2018-03-03T07:11:18.520Z,47.83
2018-03-03T07:13:46.806Z,51.07
2018-03-03T07:16:15.155Z,59.23
2018-03-03T07:18:43.468Z,41.80
2018-03-03T07:21:11.779Z,56.93
2018-03-03T07:23:40.851Z,49.80
2018-03-03T07:26:09.993Z,47.37
2018-03-03T07:28:39.011Z,46.87
2018-03-03T07:31:07.331Z,44.10
2018-03-03T07:33:36.367Z,59.23
2018-03-03T07:36:06.113Z,59.33
2018-03-03T07:38:34.912Z,57.13
2018-03-03T07:41:03.187Z,48.20
2018-03-03T07:43:31.680Z,51.23
2018-03-03T07:46:01.600Z,51.10
2018-03-03T07:48:30.723Z,53.73
2018-03-03T07:50:59.780Z,47.33
2018-03-03T07:53:28.061Z,52.50
2018-03-03T07:55:56.329Z,44.17
2018-03-03T07:58:42.603Z,43.40
2018-03-03T08:01:11.309Z,49.67
2018-03-03T08:03:39.807Z,50.10
2018-03-03T08:06:10.055Z,53.87
2018-03-03T08:08:39.104Z,43.10
2018-03-03T08:11:08.076Z,54.37
2018-03-03T08:13:36.425Z,48.43
2018-03-03T08:16:05.809Z,50.53
2018-03-03T08:18:34.080Z,46.67
2018-03-03T08:21:02.390Z,50.23
2018-03-03T08:23:31.424Z,51.90
2018-03-03T08:25:59.752Z,43.10
2018-03-03T08:28:28.885Z,48.43
2018-03-03T08:30:57.179Z,40.23
2018-03-03T08:33:26.283Z,45.50
2018-03-03T08:35:55.047Z,48.07
2018-03-03T08:38:23.331Z,44.30
2018-03-03T08:40:51.648Z,51.70
2018-03-03T08:43:20.040Z,46.17
2018-03-03T08:45:49.856Z,46.30
2018-03-03T08:48:19.708Z,43.10
2018-03-03T08:50:48.099Z,44.27
2018-03-03T08:53:16.382Z,49.00
2018-03-03T08:55:46.320Z,39.90
2018-03-03T08:58:15.284Z,56.00
2018-03-03T09:00:43.656Z,38.57
2018-03-03T09:03:11.938Z,46.13
2018-03-03T09:05:40.223Z,39.93
2018-03-03T09:08:09.115Z,47.07
2018-03-03T09:10:37.695Z,49.60
2018-03-03T09:13:05.972Z,52.13
2018-03-03T09:15:34.269Z,42.47
2018-03-03T09:18:02.724Z,54.50
2018-03-03T09:20:31.023Z,53.07
2018-03-03T09:22:59.311Z,63.87
2018-03-03T09:25:28.391Z,51.23
2018-03-03T09:27:56.669Z,54.00
2018-03-03T09:30:24.948Z,44.30
2018-03-03T09:32:54.423Z,46.30
2018-03-03T09:35:22.865Z,34.10
2018-03-03T09:37:51.420Z,49.77
2018-03-03T09:40:19.917Z,42.20
2018-03-03T09:42:48.217Z,42.80
2018-03-03T09:45:16.493Z,49.90
2018-03-03T09:47:44.822Z,48.90
2018-03-03T09:50:13.100Z,49.87
2018-03-03T09:52:41.510Z,50.43
2018-03-03T09:55:09.871Z,43.57
2018-03-03T09:57:38.198Z,52.43
2018-03-03T10:00:06.487Z,44.50
2018-03-03T10:02:35.611Z,41.83
2018-03-03T10:05:03.880Z,39.70
2018-03-03T10:07:32.162Z,41.87
2018-03-03T10:10:00.559Z,47.90
2018-03-03T10:12:29.763Z,42.27
2018-03-03T10:14:59.199Z,38.93
2018-03-03T10:17:27.780Z,42.70
2018-03-03T10:19:56.068Z,39.10
2018-03-03T10:22:24.372Z,28.70
2018-03-03T10:24:52.649Z,43.17
2018-03-03T10:27:21.709Z,45.70
2018-03-03T10:29:50.503Z,41.60
2018-03-03T10:32:19.044Z,39.13
2018-03-03T10:34:47.357Z,39.03
2018-03-03T10:37:15.639Z,39.50
2018-03-03T10:39:44.922Z,29.00
2018-03-03T10:42:13.859Z,31.27
2018-03-03T10:44:42.901Z,33.57
2018-03-03T10:47:12.012Z,36.40
2018-03-03T10:49:40.423Z,38.83
2018-03-03T10:52:08.759Z,36.47
2018-03-03T10:54:37.129Z,30.93
2018-03-03T10:57:05.429Z,34.13
2018-03-03T10:59:33.740Z,29.77
2018-03-03T11:02:02.887Z,43.77
2018-03-03T11:04:31.599Z,36.30
2018-03-03T11:06:59.984Z,31.97
2018-03-03T11:09:28.345Z,29.70
2018-03-03T11:11:56.641Z,29.63
2018-03-03T11:14:24.911Z,25.90
2018-03-03T11:16:53.292Z,32.80
2018-03-03T11:19:22.276Z,29.57
2018-03-03T11:21:50.556Z,36.93
2018-03-03T11:24:18.843Z,30.13
2018-03-03T11:26:47.156Z,26.27
2018-03-03T11:29:16.828Z,26.13
2018-03-03T11:31:45.123Z,25.93
2018-03-03T11:34:13.432Z,29.43
2018-03-03T11:36:42.564Z,27.07
2018-03-03T11:39:11.148Z,36.73
2018-03-03T11:41:39.778Z,32.83
2018-03-03T11:44:08.072Z,25.37
2018-03-03T11:46:37.442Z,34.73
2018-03-03T11:49:05.822Z,45.23
2018-03-03T11:51:34.092Z,21.83
2018-03-03T11:54:02.407Z,27.07
2018-03-03T11:56:31.503Z,37.60
2018-03-03T11:59:00.613Z,23.07
2018-03-03T12:01:28.898Z,30.37
2018-03-03T12:03:58.463Z,31.67
2018-03-03T12:06:27.340Z,35.47
2018-03-03T12:08:56.029Z,33.47
2018-03-03T12:11:24.864Z,29.10
2018-03-03T12:13:53.151Z,31.23
2018-03-03T12:16:21.440Z,30.67
2018-03-03T12:18:49.720Z,26.33
2018-03-03T12:21:19.689Z,28.33
2018-03-03T12:23:48.046Z,29.93
2018-03-03T12:26:16.358Z,26.83
2018-03-03T12:28:44.945Z,29.80
2018-03-03T12:31:14.943Z,19.70
2018-03-03T12:33:43.218Z,25.30
2018-03-03T12:36:11.680Z,25.43
2018-03-03T12:38:40.256Z,23.23
2018-03-03T12:41:09.077Z,32.67
2018-03-03T12:43:37.539Z,29.03
2018-03-03T12:46:06.552Z,26.23
2018-03-03T12:48:36.372Z,41.33
2018-03-03T12:51:04.664Z,27.20
2018-03-03T12:53:33.725Z,23.30
2018-03-03T12:56:02.299Z,24.47
2018-03-03T12:58:30.668Z,21.97
2018-03-03T13:00:58.959Z,28.03
2018-03-03T13:03:27.240Z,22.83
2018-03-03T13:05:55.813Z,18.57
2018-03-03T13:08:24.076Z,21.13
2018-03-03T13:10:52.482Z,25.73
2018-03-03T13:13:21.051Z,22.77
2018-03-03T13:15:49.323Z,20.20
2018-03-03T13:18:18.991Z,26.13
2018-03-03T13:20:48.085Z,25.70
2018-03-03T13:23:17.131Z,27.33
2018-03-03T13:25:46.366Z,30.07
2018-03-03T13:28:14.668Z,23.67
2018-03-03T13:30:43.712Z,25.00
2018-03-03T13:33:12.195Z,27.30
2018-03-03T13:35:40.589Z,28.70
2018-03-03T13:38:08.825Z,20.87
2018-03-03T13:40:37.112Z,20.20
2018-03-03T13:43:05.505Z,26.77
2018-03-03T13:45:33.767Z,26.37
2018-03-03T13:48:02.168Z,29.63
2018-03-03T13:50:30.524Z,26.97
2018-03-03T13:52:58.795Z,24.47
2018-03-03T13:55:27.063Z,19.60
2018-03-03T13:57:55.891Z,19.73
2018-03-03T14:00:24.472Z,27.50
2018-03-03T14:02:52.740Z,29.63
2018-03-03T14:05:21.533Z,25.27
2018-03-03T14:07:49.825Z,25.53
2018-03-03T14:10:18.091Z,24.43
2018-03-03T14:12:46.411Z,32.37
2018-03-03T14:15:14.701Z,22.80
2018-03-03T14:17:43.895Z,30.93
2018-03-03T14:20:13.141Z,22.10
2018-03-03T14:22:42.345Z,28.30
2018-03-03T14:25:10.711Z,23.20
2018-03-03T14:27:39.003Z,33.63
2018-03-03T14:30:08.754Z,26.00
2018-03-03T14:32:37.389Z,29.20
2018-03-03T14:35:05.693Z,24.40
2018-03-03T14:37:33.980Z,27.57
2018-03-03T14:40:03.185Z,26.43
2018-03-03T14:42:31.716Z,23.87
2018-03-03T14:45:01.591Z,31.03
2018-03-03T14:47:29.943Z,31.83
2018-03-03T14:49:58.340Z,38.07
2018-03-03T14:52:26.611Z,32.93
2018-03-03T14:54:54.963Z,32.90
2018-03-03T14:57:23.237Z,27.83
2018-03-03T14:59:51.835Z,25.90
2018-03-03T15:02:20.112Z,31.37
2018-03-03T15:04:48.480Z,33.50
2018-03-03T15:07:16.869Z,30.30
2018-03-03T15:09:45.160Z,24.93
2018-03-03T15:12:13.467Z,30.00
2018-03-03T15:14:41.792Z,26.37
2018-03-03T15:17:10.148Z,23.17
2018-03-03T15:19:39.212Z,24.57
2018-03-03T15:22:07.489Z,25.10
2018-03-03T15:24:36.452Z,32.23
2018-03-03T15:27:05.719Z,23.00
2018-03-03T15:29:34.874Z,22.00
2018-03-03T15:32:03.573Z,25.00
2018-03-03T15:34:31.923Z,29.03
2018-03-03T15:37:00.233Z,27.70
2018-03-03T15:39:29.096Z,29.07
2018-03-03T15:41:58.145Z,28.27
2018-03-03T15:44:27.193Z,23.40
2018-03-03T15:46:55.478Z,28.73
2018-03-03T15:49:23.792Z,27.40
2018-03-03T15:51:52.952Z,30.00
2018-03-03T15:54:21.268Z,31.53
2018-03-03T15:56:50.333Z,28.17
2018-03-03T15:59:19.201Z,27.00
2018-03-03T16:01:47.584Z,27.03
2018-03-03T16:04:15.893Z,26.30
2018-03-03T16:06:44.172Z,29.80
2018-03-03T16:09:12.629Z,27.07
2018-03-03T16:11:40.925Z,26.93
2018-03-03T16:14:09.637Z,23.17
2018-03-03T16:16:38.766Z,38.60
2018-03-03T16:19:07.511Z,34.70
2018-03-03T16:21:35.832Z,27.10
2018-03-03T16:24:04.488Z,28.33
2018-03-03T16:26:33.607Z,21.40
2018-03-03T16:29:01.898Z,41.30
2018-03-03T16:31:31.788Z,27.80
2018-03-03T16:34:00.877Z,33.23
2018-03-03T16:36:29.920Z,26.60
2018-03-03T16:38:58.981Z,28.73
2018-03-03T16:41:27.596Z,25.13
2018-03-03T16:43:55.896Z,29.27
2018-03-03T16:46:24.839Z,27.67
2018-03-03T16:48:53.197Z,28.60
2018-03-03T16:51:21.460Z,29.97
2018-03-03T16:53:49.741Z,27.17
2018-03-03T16:56:18.049Z,30.13
2018-03-03T16:58:47.812Z,31.83
2018-03-03T17:01:16.102Z,28.37
2018-03-03T17:03:44.472Z,33.00
2018-03-03T17:06:13.331Z,25.47
2018-03-03T17:08:42.479Z,31.53
2018-03-03T17:11:10.783Z,27.10
2018-03-03T17:13:39.836Z,29.43
2018-03-03T17:16:08.639Z,26.53
2018-03-03T17:18:36.979Z,31.07
2018-03-03T17:21:05.269Z,29.77
2018-03-03T17:23:33.593Z,34.30
2018-03-03T17:26:02.778Z,30.57
2018-03-03T17:28:31.077Z,32.10
2018-03-03T17:31:00.236Z,30.20
2018-03-03T17:33:29.255Z,32.03
2018-03-03T17:35:57.547Z,29.00
2018-03-03T17:38:26.627Z,36.67
2018-03-03T17:40:54.976Z,30.57
2018-03-03T17:43:23.272Z,34.20
2018-03-03T17:45:51.604Z,32.53
2018-03-03T17:48:21.064Z,37.87
2018-03-03T17:50:49.385Z,35.63
2018-03-03T17:53:17.691Z,35.13
2018-03-03T17:55:45.976Z,28.73
2018-03-03T17:58:14.873Z,34.93
2018-03-03T18:00:43.151Z,31.40
2018-03-03T18:03:11.514Z,33.13
2018-03-03T18:05:39.917Z,36.80
2018-03-03T18:08:08.679Z,32.43
2018-03-03T18:10:36.986Z,28.57
2018-03-03T18:13:07.076Z,35.37
2018-03-03T18:15:35.357Z,31.73
2018-03-03T18:18:03.958Z,34.33
2018-03-03T18:20:32.665Z,27.83
2018-03-03T18:23:00.993Z,28.83
2018-03-03T18:25:29.321Z,33.43
2018-03-03T18:27:58.378Z,32.80
2018-03-03T18:30:28.146Z,33.33
2018-03-03T18:32:56.492Z,37.67
2018-03-03T18:35:24.766Z,33.57
2018-03-03T18:37:53.047Z,28.50
2018-03-03T18:40:21.380Z,31.27
2018-03-03T18:42:49.697Z,56.70
2018-03-03T18:45:18.103Z,31.63
2018-03-03T18:47:46.712Z,38.40
2018-03-03T18:50:15.867Z,29.03
2018-03-03T18:52:44.886Z,33.37
2018-03-03T18:55:14.686Z,31.10
2018-03-03T18:57:42.956Z,35.23
2018-03-03T19:00:11.262Z,37.67
2018-03-03T19:02:39.561Z,43.13
2018-03-03T19:05:07.852Z,41.83
2018-03-03T19:07:36.160Z,40.67
2018-03-03T19:10:04.459Z,43.33
2018-03-03T19:12:32.773Z,36.70
2018-03-03T19:15:01.124Z,42.93
2018-03-03T19:17:30.213Z,43.50
2018-03-03T19:19:58.504Z,39.97
2018-03-03T19:22:26.829Z,38.73
2018-03-03T19:24:55.108Z,38.47
2018-03-03T19:27:23.399Z,45.53
2018-03-03T19:29:51.700Z,38.73
2018-03-03T19:32:20.500Z,39.30
2018-03-03T19:34:49.546Z,36.77
2018-03-03T19:37:19.281Z,38.30
2018-03-03T19:39:47.865Z,36.70
2018-03-03T19:42:16.173Z,53.17
2018-03-03T19:44:45.120Z,44.10
2018-03-03T19:47:14.390Z,43.57
2018-03-03T19:49:42.650Z,37.80
2018-03-03T19:52:11.272Z,45.93
2018-03-03T19:54:40.002Z,33.50
2018-03-03T19:57:08.601Z,46.03
2018-03-03T19:59:36.897Z,46.80
2018-03-03T20:02:05.953Z,38.37
2018-03-03T20:04:34.250Z,44.60
2018-03-03T20:07:02.601Z,38.80
2018-03-03T20:09:30.893Z,44.00
2018-03-03T20:11:59.551Z,42.27
2018-03-03T20:14:27.932Z,49.27
2018-03-03T20:16:56.556Z,48.57
2018-03-03T20:19:24.827Z,51.77
2018-03-03T20:21:53.187Z,37.40
2018-03-03T20:24:21.492Z,45.93
2018-03-03T20:26:49.800Z,55.43
2018-03-03T20:29:19.065Z,43.80
2018-03-03T20:31:47.740Z,44.00
2018-03-03T20:34:16.025Z,52.73
2018-03-03T20:36:44.382Z,43.67
2018-03-03T20:39:12.756Z,35.10
2018-03-03T20:41:42.406Z,42.87
2018-03-03T20:44:10.760Z,40.63
2018-03-03T20:46:39.057Z,37.80
2018-03-03T20:49:07.339Z,52.53
2018-03-03T20:51:37.562Z,46.70
2018-03-03T20:54:05.861Z,45.73
2018-03-03T20:56:35.660Z,55.00
2018-03-03T20:59:04.790Z,48.17
2018-03-03T21:01:33.061Z,39.93
2018-03-03T21:04:02.571Z,52.53
2018-03-03T21:06:31.621Z,43.80
2018-03-03T21:08:59.912Z,50.57
2018-03-03T21:14:34.760Z,42.57
2018-03-03T21:17:03.076Z,49.60
2018-03-03T21:19:31.518Z,41.60
2018-03-03T21:21:59.857Z,50.77
2018-03-03T21:24:28.960Z,45.23
2018-03-03T21:26:57.248Z,52.77
2018-03-03T21:29:25.528Z,42.47
2018-03-03T21:31:54.088Z,35.17
2018-03-03T21:34:22.380Z,41.70
2018-03-03T21:36:50.671Z,40.60
2018-03-03T21:39:19.490Z,53.90
2018-03-03T21:41:47.952Z,47.43
2018-03-03T21:44:17.101Z,54.17
2018-03-03T21:46:45.421Z,44.37
2018-03-03T21:49:13.721Z,37.57
2018-03-03T21:51:42.004Z,53.23
2018-03-03T21:54:11.077Z,50.40
2018-03-03T21:56:40.017Z,46.63
2018-03-03T21:59:09.069Z,56.70
2018-03-03T22:01:37.391Z,44.07
2018-03-03T22:04:06.720Z,37.30
2018-03-03T22:06:35.001Z,47.83
2018-03-03T22:09:03.288Z,45.53
2018-03-03T22:11:31.629Z,37.13
2018-03-03T22:14:00.701Z,35.73
2018-03-03T22:16:29.040Z,55.03
2018-03-03T22:18:57.349Z,48.13
2018-03-03T22:21:25.648Z,38.40
2018-03-03T22:23:54.848Z,41.00
2018-03-03T22:26:25.001Z,39.07
2018-03-03T22:28:54.033Z,38.43
2018-03-03T22:31:22.561Z,53.07
2018-03-03T22:33:51.604Z,35.67
2018-03-03T22:36:20.212Z,38.07
2018-03-03T22:38:48.502Z,35.70
2018-03-03T22:41:16.777Z,36.43
2018-03-03T22:43:45.070Z,38.73
2018-03-03T22:46:14.112Z,35.27
2018-03-03T22:48:42.760Z,39.30
2018-03-03T22:51:12.126Z,36.73
2018-03-03T22:53:40.404Z,40.93
2018-03-03T22:56:08.709Z,38.40
2018-03-03T22:58:37.760Z,43.90
2018-03-03T23:01:06.124Z,41.03
2018-03-03T23:03:34.440Z,43.63
2018-03-03T23:06:02.781Z,38.50
2018-03-03T23:08:31.873Z,36.30
2018-03-03T23:11:01.717Z,38.00
2018-03-03T23:13:29.989Z,37.40
2018-03-03T23:15:58.344Z,41.97
2018-03-03T23:18:26.628Z,41.87
2018-03-03T23:20:55.424Z,47.53
2018-03-03T23:23:24.138Z,45.27
2018-03-03T23:25:53.052Z,45.30
2018-03-03T23:28:22.096Z,41.47
2018-03-03T23:30:50.688Z,41.33
2018-03-03T23:33:18.977Z,38.63
2018-03-03T23:35:47.284Z,29.80
2018-03-03T23:38:17.813Z,42.13
2018-03-03T23:40:46.189Z,41.73
2018-03-03T23:43:14.477Z,41.80
2018-03-03T23:45:43.564Z,36.90
2018-03-03T23:48:11.894Z,33.10
2018-03-03T23:50:40.917Z,42.57
2018-03-03T23:53:09.364Z,37.10
2018-03-03T23:55:37.688Z,38.33
2018-03-03T23:58:06.777Z,48.43
